createdAt,value
2019-05-01T00:00:31.567Z,69.58
2019-05-01T00:01:48.030Z,70.01
2019-05-01T00:03:02.888Z,70.84
2019-05-01T00:04:13.064Z,71.18
2019-05-01T00:05:19.199Z,70.95
2019-05-01T00:06:28.244Z,71.07
2019-05-01T00:07:34.343Z,71.38
2019-05-01T00:08:38.883Z,71.39
2019-05-01T00:09:43.682Z,71.18
2019-05-01T00:10:48.221Z,71.08
2019-05-01T00:11:52.692Z,71.35
2019-05-01T00:12:58.858Z,72.06
2019-05-01T00:14:03.326Z,72.36
2019-05-01T00:15:08.154Z,71.60
2019-05-01T00:16:12.837Z,71.97
2019-05-01T00:17:18.084Z,71.61
2019-05-01T00:18:22.838Z,70.75
2019-05-01T00:19:27.322Z,71.57
2019-05-01T00:20:31.814Z,72.13
2019-05-01T00:21:36.287Z,72.62
2019-05-01T00:22:41.114Z,71.59
2019-05-01T00:23:45.650Z,72.39
2019-05-01T00:24:50.314Z,71.69
2019-05-01T00:25:55.851Z,72.24
2019-05-01T00:27:00.323Z,71.00
2019-05-01T00:28:05.136Z,71.94
2019-05-01T00:29:09.679Z,72.01
2019-05-01T00:30:28.811Z,72.32
2019-05-01T00:31:22.750Z,72.77
2019-05-01T00:32:27.287Z,72.41
2019-05-01T00:33:32.725Z,71.66
2019-05-01T00:34:37.199Z,71.20
2019-05-01T00:35:41.691Z,71.17
2019-05-01T00:36:46.228Z,70.69
2019-05-01T00:37:51.878Z,70.49
2019-05-01T00:38:56.344Z,71.80
2019-05-01T00:40:01.136Z,71.08
2019-05-01T00:41:06.323Z,70.08
2019-05-01T00:42:11.143Z,70.83
2019-05-01T00:43:15.918Z,70.35
2019-05-01T00:44:20.401Z,70.89
2019-05-01T00:45:25.406Z,71.13
2019-05-01T00:46:29.929Z,71.15
2019-05-01T00:47:34.364Z,70.76
2019-05-01T00:48:38.909Z,71.89
2019-05-01T00:49:43.388Z,72.55
2019-05-01T00:50:48.571Z,72.07
2019-05-01T00:51:53.041Z,72.55
2019-05-01T00:52:57.507Z,72.12
2019-05-01T00:54:02.316Z,71.53
2019-05-01T00:55:25.266Z,71.80
2019-05-01T00:56:40.162Z,72.29
2019-05-01T00:57:49.259Z,71.96
2019-05-01T00:59:13.610Z,72.15
2019-05-01T01:00:29.042Z,72.12
2019-05-01T01:01:44.047Z,72.60
2019-05-01T01:02:48.996Z,73.00
2019-05-01T01:03:53.457Z,73.29
2019-05-01T01:04:57.927Z,73.02
2019-05-01T01:06:03.526Z,73.09
2019-05-01T01:07:08.268Z,72.86
2019-05-01T01:08:12.749Z,72.49
2019-05-01T01:09:17.982Z,74.27
2019-05-01T01:10:22.484Z,74.42
2019-05-01T01:11:26.993Z,73.07
2019-05-01T01:12:31.609Z,74.03
2019-05-01T01:13:36.084Z,74.00
2019-05-01T01:14:40.559Z,74.10
2019-05-01T01:15:45.368Z,74.09
2019-05-01T01:16:50.183Z,73.90
2019-05-01T01:17:54.979Z,73.94
2019-05-01T01:18:59.453Z,74.05
2019-05-01T01:20:04.464Z,74.22
2019-05-01T01:21:09.096Z,74.49
2019-05-01T01:22:13.560Z,74.94
2019-05-01T01:23:18.965Z,75.63
2019-05-01T01:24:23.675Z,76.09
2019-05-01T01:25:28.142Z,76.26
2019-05-01T01:26:32.949Z,77.70
2019-05-01T01:27:38.176Z,78.88
2019-05-01T01:28:42.997Z,79.82
2019-05-01T01:29:48.611Z,79.90
2019-05-01T01:30:56.566Z,80.10
2019-05-01T01:31:59.342Z,80.50
2019-05-01T01:33:04.090Z,80.96
2019-05-01T01:34:08.936Z,81.45
2019-05-01T01:35:13.774Z,82.05
2019-05-01T01:36:18.264Z,82.16
2019-05-01T01:37:22.732Z,82.49
2019-05-01T01:38:27.212Z,82.49
2019-05-01T01:39:32.016Z,82.30
2019-05-01T01:40:36.856Z,82.00
2019-05-01T01:41:44.102Z,82.03
2019-05-01T01:42:50.474Z,82.18
2019-05-01T01:43:56.923Z,82.13
2019-05-01T01:45:09.564Z,82.66
2019-05-01T01:46:24.791Z,82.76
2019-05-01T01:47:29.453Z,82.94
2019-05-01T01:48:33.961Z,82.94
2019-05-01T01:49:38.602Z,82.92
2019-05-01T01:50:45.871Z,82.37
2019-05-01T01:51:51.210Z,81.61
2019-05-01T01:52:55.761Z,80.31
2019-05-01T01:54:00.774Z,79.91
2019-05-01T01:55:06.286Z,80.70
2019-05-01T01:56:10.895Z,80.32
2019-05-01T01:57:15.826Z,79.52
2019-05-01T01:58:21.701Z,78.16
2019-05-01T01:59:27.005Z,78.53
2019-05-01T02:00:34.268Z,78.20
2019-05-01T02:01:43.257Z,77.77
2019-05-01T02:02:49.431Z,78.83
2019-05-01T02:04:04.088Z,79.38
2019-05-01T02:05:13.200Z,80.86
2019-05-01T02:06:17.807Z,81.80
2019-05-01T02:07:22.989Z,81.79
2019-05-01T02:08:27.812Z,79.85
2019-05-01T02:09:32.299Z,80.92
2019-05-01T02:10:43.056Z,81.07
2019-05-01T02:11:45.523Z,80.50
2019-05-01T02:12:50.414Z,81.54
2019-05-01T02:13:56.497Z,82.56
2019-05-01T02:15:00.965Z,82.67
2019-05-01T02:16:05.507Z,83.04
2019-05-01T02:17:10.469Z,83.13
2019-05-01T02:18:14.933Z,83.03
2019-05-01T02:19:20.469Z,83.31
2019-05-01T02:20:25.329Z,83.44
2019-05-01T02:21:29.803Z,83.90
2019-05-01T02:22:34.357Z,84.12
2019-05-01T02:23:38.982Z,84.52
2019-05-01T02:24:43.789Z,84.73
2019-05-01T02:25:48.260Z,84.67
2019-05-01T02:26:54.858Z,84.62
2019-05-01T02:28:17.641Z,84.56
2019-05-01T02:29:27.443Z,84.63
2019-05-01T02:30:32.057Z,84.96
2019-05-01T02:31:38.909Z,85.16
2019-05-01T02:32:46.101Z,84.95
2019-05-01T02:33:53.110Z,85.15
2019-05-01T02:35:00.481Z,85.12
2019-05-01T02:36:06.189Z,85.13
2019-05-01T02:37:13.322Z,84.83
2019-05-01T02:38:18.265Z,84.58
2019-05-01T02:39:23.639Z,84.27
2019-05-01T02:40:51.917Z,83.64
2019-05-01T02:41:59.490Z,84.37
2019-05-01T02:43:04.933Z,83.88
2019-05-01T02:44:12.522Z,84.18
2019-05-01T02:45:17.928Z,84.03
2019-05-01T02:46:25.197Z,83.41
2019-05-01T02:47:32.723Z,84.01
2019-05-01T02:48:40.413Z,83.99
2019-05-01T02:49:53.529Z,84.34
2019-05-01T02:51:01.384Z,84.08
2019-05-01T02:52:08.332Z,83.62
2019-05-01T02:53:12.959Z,84.08
2019-05-01T02:54:20.772Z,83.38
2019-05-01T02:55:36.670Z,83.25
2019-05-01T02:56:44.215Z,83.46
2019-05-01T02:57:49.354Z,84.11
2019-05-01T02:58:56.867Z,83.85
2019-05-01T03:00:01.688Z,84.39
2019-05-01T03:01:06.216Z,84.36
2019-05-01T03:02:11.284Z,84.39
2019-05-01T03:03:17.332Z,84.37
2019-05-01T03:04:22.344Z,84.37
2019-05-01T03:05:26.869Z,84.67
2019-05-01T03:06:32.395Z,84.62
2019-05-01T03:07:40.810Z,84.42
2019-05-01T03:08:45.685Z,84.40
2019-05-01T03:09:50.893Z,84.82
2019-05-01T03:10:55.356Z,84.78
2019-05-01T03:12:00.679Z,84.81
2019-05-01T03:13:05.830Z,84.75
2019-05-01T03:14:13.377Z,85.22
2019-05-01T03:15:20.119Z,84.94
2019-05-01T03:16:26.233Z,85.24
2019-05-01T03:17:49.085Z,85.48
2019-05-01T03:18:55.581Z,85.15
2019-05-01T03:20:02.230Z,85.08
2019-05-01T03:21:08.493Z,84.42
2019-05-01T03:22:14.673Z,85.04
2019-05-01T03:23:21.257Z,85.47
2019-05-01T03:24:27.915Z,85.24
2019-05-01T03:25:32.741Z,84.98
2019-05-01T03:26:38.681Z,84.74
2019-05-01T03:27:44.204Z,84.62
2019-05-01T03:28:49.367Z,84.75
2019-05-01T03:29:53.884Z,84.79
2019-05-01T03:30:58.626Z,84.72
2019-05-01T03:32:16.860Z,85.18
2019-05-01T03:33:09.291Z,85.27
2019-05-01T03:34:14.216Z,84.96
2019-05-01T03:35:18.936Z,85.21
2019-05-01T03:36:23.959Z,85.00
2019-05-01T03:37:29.068Z,85.12
2019-05-01T03:38:34.615Z,84.92
2019-05-01T03:39:39.717Z,84.89
2019-05-01T03:40:44.259Z,84.89
2019-05-01T03:41:49.438Z,84.98
2019-05-01T03:42:53.978Z,85.49
2019-05-01T03:43:59.395Z,85.31
2019-05-01T03:45:05.505Z,85.32
2019-05-01T03:46:10.479Z,85.82
2019-05-01T03:47:15.121Z,86.00
2019-05-01T03:48:19.903Z,86.00
2019-05-01T03:49:25.109Z,85.71
2019-05-01T03:50:29.580Z,85.71
2019-05-01T03:51:34.055Z,85.62
2019-05-01T03:52:38.586Z,85.38
2019-05-01T03:53:43.695Z,85.45
2019-05-01T03:54:49.595Z,85.93
2019-05-01T03:55:54.864Z,86.07
2019-05-01T03:56:59.990Z,86.02
2019-05-01T03:58:05.397Z,86.03
2019-05-01T03:59:10.220Z,86.01
2019-05-01T04:00:31.948Z,85.77
2019-05-01T04:01:38.350Z,85.66
2019-05-01T04:02:48.772Z,85.88
2019-05-01T04:03:59.018Z,86.29
2019-05-01T04:05:04.325Z,86.34
2019-05-01T04:06:08.816Z,86.23
2019-05-01T04:07:13.332Z,86.50
2019-05-01T04:08:18.448Z,86.46
2019-05-01T04:09:22.935Z,86.46
2019-05-01T04:10:27.642Z,86.40
2019-05-01T04:11:32.254Z,86.69
2019-05-01T04:12:37.264Z,86.71
2019-05-01T04:13:41.940Z,86.79
2019-05-01T04:14:46.548Z,86.84
2019-05-01T04:15:52.703Z,86.95
2019-05-01T04:16:59.494Z,86.95
2019-05-01T04:18:05.867Z,86.93
2019-05-01T04:19:11.135Z,86.96
2019-05-01T04:20:15.738Z,86.93
2019-05-01T04:21:22.076Z,86.98
2019-05-01T04:22:26.884Z,86.88
2019-05-01T04:23:31.726Z,86.79
2019-05-01T04:24:37.081Z,87.01
2019-05-01T04:25:41.912Z,87.13
2019-05-01T04:26:46.394Z,87.18
2019-05-01T04:27:53.558Z,87.25
2019-05-01T04:29:15.496Z,87.39
2019-05-01T04:30:38.122Z,87.46
2019-05-01T04:31:44.503Z,87.13
2019-05-01T04:32:52.996Z,87.16
2019-05-01T04:33:58.287Z,87.31
2019-05-01T04:35:20.605Z,87.38
2019-05-01T04:36:33.209Z,86.99
2019-05-01T04:37:38.279Z,87.14
2019-05-01T04:38:42.870Z,87.09
2019-05-01T04:39:47.833Z,87.24
2019-05-01T04:40:52.364Z,87.07
2019-05-01T04:41:57.008Z,86.99
2019-05-01T04:43:01.716Z,86.97
2019-05-01T04:44:06.562Z,86.93
2019-05-01T04:45:11.530Z,86.87
2019-05-01T04:46:16.133Z,87.13
2019-05-01T04:47:20.671Z,87.23
2019-05-01T04:48:25.379Z,86.99
2019-05-01T04:49:30.033Z,87.27
2019-05-01T04:50:36.420Z,87.50
2019-05-01T04:51:41.028Z,87.44
2019-05-01T04:52:45.931Z,87.12
2019-05-01T04:53:52.029Z,87.25
2019-05-01T04:54:56.592Z,87.15
2019-05-01T04:56:01.531Z,87.13
2019-05-01T04:57:06.025Z,87.32
2019-05-01T04:58:10.954Z,87.20
2019-05-01T04:59:15.884Z,87.34
2019-05-01T05:00:20.448Z,87.57
2019-05-01T05:01:28.336Z,87.50
2019-05-01T05:02:40.576Z,87.20
2019-05-01T05:03:46.989Z,87.40
2019-05-01T05:04:51.475Z,87.29
2019-05-01T05:05:56.286Z,87.26
2019-05-01T05:07:01.804Z,87.44
2019-05-01T05:08:06.336Z,87.39
2019-05-01T05:09:11.136Z,86.71
2019-05-01T05:10:16.058Z,86.73
2019-05-01T05:11:28.900Z,86.60
2019-05-01T05:12:44.595Z,86.44
2019-05-01T05:14:09.083Z,86.12
2019-05-01T05:15:21.494Z,86.33
2019-05-01T05:16:44.409Z,86.41
2019-05-01T05:17:49.242Z,86.06
2019-05-01T05:18:53.782Z,85.59
2019-05-01T05:19:58.541Z,85.54
2019-05-01T05:21:03.288Z,85.90
2019-05-01T05:22:08.095Z,85.38
2019-05-01T05:23:12.931Z,85.46
2019-05-01T05:24:17.872Z,85.39
2019-05-01T05:25:23.227Z,84.88
2019-05-01T05:26:28.239Z,85.39
2019-05-01T05:27:34.442Z,85.15
2019-05-01T05:28:39.583Z,84.81
2019-05-01T05:29:45.316Z,85.32
2019-05-01T05:30:52.078Z,84.79
2019-05-01T05:31:59.601Z,84.65
2019-05-01T05:33:17.779Z,84.21
2019-05-01T05:34:14.639Z,83.97
2019-05-01T05:35:22.107Z,84.29
2019-05-01T05:36:28.253Z,83.65
2019-05-01T05:37:37.028Z,82.79
2019-05-01T05:38:50.456Z,82.18
2019-05-01T05:39:58.159Z,81.93
2019-05-01T05:41:04.402Z,81.90
2019-05-01T05:42:10.440Z,82.54
2019-05-01T05:43:15.359Z,81.49
2019-05-01T05:44:20.178Z,79.77
2019-05-01T05:45:24.940Z,79.45
2019-05-01T05:46:30.129Z,78.14
2019-05-01T05:47:35.345Z,78.64
2019-05-01T05:48:41.328Z,79.46
2019-05-01T05:49:46.530Z,77.72
2019-05-01T05:51:11.117Z,76.85
2019-05-01T05:52:34.842Z,75.98
2019-05-01T05:53:41.991Z,76.18
2019-05-01T05:54:54.401Z,76.66
2019-05-01T05:56:11.895Z,75.30
2019-05-01T05:57:20.574Z,75.56
2019-05-01T05:58:27.481Z,76.81
2019-05-01T05:59:38.434Z,75.59
2019-05-01T06:00:58.077Z,75.15
2019-05-01T06:02:07.115Z,74.76
2019-05-01T06:03:35.013Z,75.29
2019-05-01T06:04:59.961Z,75.98
2019-05-01T06:06:08.354Z,75.26
2019-05-01T06:07:17.005Z,76.61
2019-05-01T06:08:25.903Z,76.40
2019-05-01T06:09:35.536Z,76.22
2019-05-01T06:10:43.207Z,76.50
2019-05-01T06:11:52.381Z,75.99
2019-05-01T06:13:21.903Z,75.91
2019-05-01T06:14:45.565Z,76.40
2019-05-01T06:15:54.459Z,75.92
2019-05-01T06:17:03.360Z,77.19
2019-05-01T06:18:09.543Z,77.45
2019-05-01T06:19:32.387Z,78.50
2019-05-01T06:20:44.811Z,77.89
2019-05-01T06:22:11.672Z,78.80
2019-05-01T06:23:23.211Z,78.21
2019-05-01T06:24:29.390Z,79.19
2019-05-01T06:25:38.176Z,78.27
2019-05-01T06:26:43.451Z,77.73
2019-05-01T06:27:49.321Z,77.42
2019-05-01T06:29:00.552Z,77.87
2019-05-01T06:30:02.183Z,77.06
2019-05-01T06:31:23.144Z,76.66
2019-05-01T06:32:24.270Z,77.99
2019-05-01T06:33:29.124Z,77.96
2019-05-01T06:34:33.664Z,77.77
2019-05-01T06:35:39.427Z,77.62
2019-05-01T06:36:48.939Z,76.87
2019-05-01T06:38:00.717Z,77.36
2019-05-01T06:39:11.737Z,77.25
2019-05-01T06:40:18.761Z,76.49
2019-05-01T06:41:22.052Z,78.09
2019-05-01T06:42:26.835Z,77.87
2019-05-01T06:43:38.933Z,79.05
2019-05-01T06:44:58.454Z,79.50
2019-05-01T06:46:13.717Z,80.54
2019-05-01T06:47:23.983Z,80.40
2019-05-01T06:48:33.224Z,79.90
2019-05-01T06:49:49.161Z,79.42
2019-05-01T06:50:55.277Z,78.54
2019-05-01T06:52:06.106Z,78.87
2019-05-01T06:53:10.642Z,77.77
2019-05-01T06:54:16.579Z,77.33
2019-05-01T06:55:22.450Z,77.68
2019-05-01T06:56:28.715Z,76.33
2019-05-01T06:57:33.586Z,75.84
2019-05-01T06:58:38.052Z,76.53
2019-05-01T06:59:43.562Z,76.96
2019-05-01T07:00:48.663Z,77.64
2019-05-01T07:01:58.363Z,76.89
2019-05-01T07:03:01.568Z,77.14
2019-05-01T07:04:06.963Z,77.86
2019-05-01T07:05:14.766Z,78.92
2019-05-01T07:06:18.978Z,80.07
2019-05-01T07:07:25.709Z,77.75
2019-05-01T07:08:34.326Z,78.02
2019-05-01T07:09:44.112Z,78.63
2019-05-01T07:10:49.385Z,79.61
2019-05-01T07:11:57.524Z,81.15
2019-05-01T07:13:06.465Z,80.49
2019-05-01T07:14:16.111Z,79.28
2019-05-01T07:15:21.816Z,78.95
2019-05-01T07:16:25.157Z,80.12
2019-05-01T07:17:32.385Z,80.50
2019-05-01T07:18:38.802Z,80.90
2019-05-01T07:20:03.082Z,79.95
2019-05-01T07:21:08.056Z,80.93
2019-05-01T07:22:17.218Z,80.78
2019-05-01T07:23:22.676Z,80.24
2019-05-01T07:24:29.149Z,79.12
2019-05-01T07:25:34.876Z,79.77
2019-05-01T07:26:43.972Z,80.17
2019-05-01T07:27:49.533Z,80.30
2019-05-01T07:29:01.422Z,79.54
2019-05-01T07:30:09.537Z,77.75
2019-05-01T07:31:18.743Z,77.67
2019-05-01T07:32:25.160Z,76.48
2019-05-01T07:33:33.590Z,76.02
2019-05-01T07:34:38.624Z,75.90
2019-05-01T07:35:43.787Z,75.60
2019-05-01T07:36:50.097Z,76.21
2019-05-01T07:37:57.536Z,77.59
2019-05-01T07:39:01.447Z,77.73
2019-05-01T07:40:08.232Z,75.61
2019-05-01T07:41:12.842Z,75.54
2019-05-01T07:42:31.374Z,76.25
2019-05-01T07:43:37.750Z,76.99
2019-05-01T07:44:46.473Z,74.98
2019-05-01T07:46:08.941Z,75.33
2019-05-01T07:47:15.412Z,77.75
2019-05-01T07:48:22.993Z,75.68
2019-05-01T07:49:39.020Z,77.15
2019-05-01T07:50:43.562Z,76.94
2019-05-01T07:51:52.295Z,76.07
2019-05-01T07:52:57.140Z,75.90
2019-05-01T07:54:04.011Z,74.55
2019-05-01T07:55:13.046Z,75.54
2019-05-01T07:56:17.259Z,74.62
2019-05-01T07:57:23.093Z,73.92
2019-05-01T07:58:29.446Z,72.99
2019-05-01T07:59:34.322Z,71.17
2019-05-01T08:00:54.911Z,71.53
2019-05-01T08:02:01.053Z,71.89
2019-05-01T08:03:07.294Z,69.54
2019-05-01T08:04:13.826Z,70.28
2019-05-01T08:05:17.966Z,70.36
2019-05-01T08:06:22.952Z,70.22
2019-05-01T08:07:27.911Z,68.84
2019-05-01T08:08:33.716Z,70.32
2019-05-01T08:09:38.188Z,69.13
2019-05-01T08:10:42.958Z,70.96
2019-05-01T08:11:47.819Z,71.76
2019-05-01T08:12:55.558Z,69.78
2019-05-01T08:14:07.365Z,70.23
2019-05-01T08:15:05.501Z,68.33
2019-05-01T08:16:09.983Z,69.04
2019-05-01T08:17:18.146Z,68.83
2019-05-01T08:18:27.859Z,69.39
2019-05-01T08:19:43.170Z,70.21
2019-05-01T08:20:50.414Z,69.44
2019-05-01T08:22:01.619Z,70.17
2019-05-01T08:23:07.599Z,70.12
2019-05-01T08:24:11.115Z,69.37
2019-05-01T08:25:16.160Z,69.21
2019-05-01T08:26:20.644Z,67.64
2019-05-01T08:27:29.660Z,68.29
2019-05-01T08:28:48.146Z,66.19
2019-05-01T08:30:03.483Z,67.94
2019-05-01T08:31:29.099Z,67.81
2019-05-01T08:32:38.938Z,69.15
2019-05-01T08:33:49.736Z,67.84
2019-05-01T08:34:59.902Z,68.54
2019-05-01T08:36:02.114Z,68.64
2019-05-01T08:37:06.876Z,69.79
2019-05-01T08:38:11.353Z,69.81
2019-05-01T08:39:16.164Z,69.53
2019-05-01T08:40:21.698Z,66.81
2019-05-01T08:41:27.168Z,67.67
2019-05-01T08:42:32.611Z,69.12
2019-05-01T08:43:37.787Z,68.23
2019-05-01T08:44:46.348Z,69.30
2019-05-01T08:45:58.606Z,67.80
2019-05-01T08:47:10.484Z,67.32
2019-05-01T08:48:20.012Z,67.83
2019-05-01T08:49:26.148Z,69.18
2019-05-01T08:50:30.611Z,68.62
2019-05-01T08:51:36.019Z,70.07
2019-05-01T08:52:42.624Z,68.64
2019-05-01T08:53:47.718Z,65.98
2019-05-01T08:54:54.726Z,66.25
2019-05-01T08:55:58.766Z,64.97
2019-05-01T08:57:03.538Z,66.62
2019-05-01T08:58:08.775Z,64.41
2019-05-01T08:59:14.478Z,65.19
2019-05-01T09:00:19.407Z,64.02
2019-05-01T09:01:24.215Z,64.49
2019-05-01T09:02:28.701Z,65.25
2019-05-01T09:03:33.171Z,63.90
2019-05-01T09:04:37.948Z,63.81
2019-05-01T09:05:42.772Z,65.33
2019-05-01T09:06:47.322Z,62.70
2019-05-01T09:07:55.987Z,63.95
2019-05-01T09:08:58.257Z,64.78
2019-05-01T09:10:02.759Z,63.13
2019-05-01T09:11:07.308Z,62.89
2019-05-01T09:12:13.555Z,63.86
2019-05-01T09:13:18.808Z,64.03
2019-05-01T09:14:24.377Z,63.64
2019-05-01T09:15:28.873Z,62.52
2019-05-01T09:16:33.411Z,61.55
2019-05-01T09:17:37.917Z,62.50
2019-05-01T09:18:42.761Z,62.69
2019-05-01T09:19:47.694Z,59.30
2019-05-01T09:20:53.824Z,59.50
2019-05-01T09:21:58.309Z,60.70
2019-05-01T09:23:02.786Z,63.62
2019-05-01T09:24:07.257Z,59.39
2019-05-01T09:25:13.449Z,60.29
2019-05-01T09:26:20.026Z,61.51
2019-05-01T09:27:29.288Z,61.54
2019-05-01T09:28:40.924Z,60.91
2019-05-01T09:29:53.177Z,63.33
2019-05-01T09:31:02.202Z,59.80
2019-05-01T09:32:10.285Z,59.59
2019-05-01T09:33:12.552Z,59.72
2019-05-01T09:34:19.208Z,61.22
2019-05-01T09:35:23.340Z,60.69
2019-05-01T09:36:27.827Z,61.15
2019-05-01T09:37:32.314Z,61.52
2019-05-01T09:38:36.860Z,60.70
2019-05-01T09:39:41.476Z,59.57
2019-05-01T09:40:45.964Z,60.51
2019-05-01T09:41:50.499Z,62.26
2019-05-01T09:42:59.318Z,62.22
2019-05-01T09:44:01.427Z,62.31
2019-05-01T09:45:07.067Z,62.00
2019-05-01T09:46:11.610Z,62.70
2019-05-01T09:47:16.752Z,64.45
2019-05-01T09:48:21.304Z,61.55
2019-05-01T09:49:25.852Z,61.68
2019-05-01T09:50:31.963Z,61.82
2019-05-01T09:51:47.459Z,61.25
2019-05-01T09:52:59.784Z,59.28
2019-05-01T09:54:09.779Z,57.17
2019-05-01T09:55:17.874Z,58.04
2019-05-01T09:56:24.858Z,57.43
2019-05-01T09:57:29.657Z,56.58
2019-05-01T09:58:34.441Z,55.95
2019-05-01T09:59:38.919Z,55.51
2019-05-01T10:00:43.684Z,53.90
2019-05-01T10:01:48.198Z,55.43
2019-05-01T10:02:54.696Z,56.62
2019-05-01T10:03:59.157Z,54.84
2019-05-01T10:05:06.684Z,54.89
2019-05-01T10:06:12.833Z,56.77
2019-05-01T10:07:18.911Z,55.81
2019-05-01T10:08:24.036Z,54.95
2019-05-01T10:09:28.822Z,56.00
2019-05-01T10:10:33.293Z,55.78
2019-05-01T10:11:40.767Z,56.79
2019-05-01T10:12:46.903Z,53.19
2019-05-01T10:13:53.664Z,54.90
2019-05-01T10:14:56.690Z,53.72
2019-05-01T10:16:01.166Z,54.34
2019-05-01T10:17:06.608Z,53.97
2019-05-01T10:18:11.088Z,55.76
2019-05-01T10:19:15.895Z,52.98
2019-05-01T10:20:20.337Z,51.99
2019-05-01T10:21:27.312Z,51.97
2019-05-01T10:22:32.967Z,50.82
2019-05-01T10:23:37.493Z,51.18
2019-05-01T10:24:41.979Z,52.27
2019-05-01T10:25:49.813Z,53.54
2019-05-01T10:27:00.074Z,50.61
2019-05-01T10:28:12.732Z,51.52
2019-05-01T10:29:33.784Z,50.25
2019-05-01T10:30:40.034Z,52.15
2019-05-01T10:31:58.274Z,50.84
2019-05-01T10:33:04.380Z,51.23
2019-05-01T10:34:26.739Z,51.41
2019-05-01T10:35:43.045Z,54.01
2019-05-01T10:36:49.759Z,54.46
2019-05-01T10:37:53.052Z,54.01
2019-05-01T10:38:57.520Z,52.57
2019-05-01T10:40:02.003Z,54.53
2019-05-01T10:41:10.451Z,55.13
2019-05-01T10:42:17.389Z,55.98
2019-05-01T10:43:22.746Z,54.72
2019-05-01T10:44:28.984Z,56.08
2019-05-01T10:45:33.435Z,52.08
2019-05-01T10:46:38.191Z,53.48
2019-05-01T10:47:42.680Z,52.24
2019-05-01T10:48:47.456Z,52.54
2019-05-01T10:49:52.230Z,52.51
2019-05-01T10:50:56.700Z,52.25
2019-05-01T10:52:13.138Z,49.50
2019-05-01T10:53:07.376Z,49.23
2019-05-01T10:54:11.868Z,50.54
2019-05-01T10:55:16.341Z,54.53
2019-05-01T10:56:21.113Z,50.22
2019-05-01T10:57:25.585Z,47.71
2019-05-01T10:58:30.376Z,50.33
2019-05-01T10:59:34.851Z,49.90
2019-05-01T11:00:41.591Z,49.37
2019-05-01T11:01:53.599Z,47.97
2019-05-01T11:02:58.699Z,47.32
2019-05-01T11:04:03.350Z,46.68
2019-05-01T11:05:08.817Z,46.82
2019-05-01T11:06:13.768Z,49.53
2019-05-01T11:07:18.525Z,49.56
2019-05-01T11:08:23.089Z,49.91
2019-05-01T11:09:27.913Z,49.28
2019-05-01T11:10:32.875Z,49.77
2019-05-01T11:11:37.825Z,48.80
2019-05-01T11:12:42.291Z,48.10
2019-05-01T11:13:47.129Z,50.52
2019-05-01T11:14:51.668Z,47.43
2019-05-01T11:15:56.157Z,46.53
2019-05-01T11:17:01.052Z,47.86
2019-05-01T11:18:05.568Z,48.53
2019-05-01T11:19:10.515Z,48.55
2019-05-01T11:20:15.238Z,50.19
2019-05-01T11:21:20.253Z,51.17
2019-05-01T11:22:25.377Z,49.00
2019-05-01T11:23:29.878Z,47.49
2019-05-01T11:24:35.979Z,47.17
2019-05-01T11:25:40.452Z,48.24
2019-05-01T11:26:45.064Z,49.97
2019-05-01T11:27:49.605Z,49.54
2019-05-01T11:28:54.418Z,47.79
2019-05-01T11:29:58.900Z,47.55
2019-05-01T11:31:05.877Z,47.74
2019-05-01T11:32:12.544Z,47.54
2019-05-01T11:33:18.858Z,48.20
2019-05-01T11:34:37.058Z,46.55
2019-05-01T11:35:49.674Z,47.13
2019-05-01T11:37:02.244Z,47.97
2019-05-01T11:38:14.067Z,48.47
2019-05-01T11:39:26.217Z,49.30
2019-05-01T11:40:32.622Z,49.43
2019-05-01T11:41:50.931Z,50.82
2019-05-01T11:42:55.485Z,50.66
2019-05-01T11:44:00.342Z,51.20
2019-05-01T11:45:07.872Z,50.23
2019-05-01T11:46:12.750Z,49.96
2019-05-01T11:47:17.517Z,50.11
2019-05-01T11:48:25.019Z,49.12
2019-05-01T11:49:28.191Z,48.42
2019-05-01T11:50:32.654Z,50.26
2019-05-01T11:51:37.126Z,47.53
2019-05-01T11:52:41.975Z,47.30
2019-05-01T11:53:46.483Z,46.05
2019-05-01T11:54:50.957Z,47.73
2019-05-01T11:55:55.427Z,48.37
2019-05-01T11:56:59.902Z,47.24
2019-05-01T11:58:04.443Z,48.41
2019-05-01T11:59:09.250Z,46.96
2019-05-01T12:00:16.121Z,47.80
2019-05-01T12:01:22.817Z,47.79
2019-05-01T12:02:27.595Z,47.33
2019-05-01T12:03:32.360Z,47.60
2019-05-01T12:04:37.208Z,46.89
2019-05-01T12:05:41.681Z,46.79
2019-05-01T12:06:46.472Z,47.16
2019-05-01T12:07:51.392Z,45.37
2019-05-01T12:08:55.887Z,45.51
2019-05-01T12:10:00.356Z,45.62
2019-05-01T12:11:06.439Z,45.89
2019-05-01T12:12:12.937Z,47.21
2019-05-01T12:13:17.749Z,48.36
2019-05-01T12:14:22.240Z,48.34
2019-05-01T12:15:26.719Z,47.65
2019-05-01T12:16:49.401Z,47.55
2019-05-01T12:17:54.841Z,48.38
2019-05-01T12:18:59.489Z,47.64
2019-05-01T12:20:05.902Z,46.83
2019-05-01T12:21:10.731Z,46.79
2019-05-01T12:22:16.386Z,46.26
2019-05-01T12:23:20.861Z,48.02
2019-05-01T12:24:25.354Z,48.89
2019-05-01T12:25:29.829Z,47.29
2019-05-01T12:26:34.457Z,46.35
2019-05-01T12:27:39.240Z,46.97
2019-05-01T12:28:43.718Z,46.97
2019-05-01T12:29:48.575Z,47.80
2019-05-01T12:30:54.116Z,47.96
2019-05-01T12:31:58.593Z,47.63
2019-05-01T12:33:03.067Z,48.61
2019-05-01T12:34:07.534Z,47.23
2019-05-01T12:35:12.175Z,47.27
2019-05-01T12:36:16.652Z,47.55
2019-05-01T12:37:37.486Z,47.43
2019-05-01T12:38:42.286Z,46.68
2019-05-01T12:39:47.213Z,47.54
2019-05-01T12:41:09.763Z,46.57
2019-05-01T12:42:15.887Z,46.57
2019-05-01T12:43:21.419Z,47.61
2019-05-01T12:44:26.291Z,49.05
2019-05-01T12:45:30.782Z,47.32
2019-05-01T12:46:42.752Z,46.76
2019-05-01T12:47:55.466Z,46.27
2019-05-01T12:49:00.288Z,46.87
2019-05-01T12:50:07.466Z,48.17
2019-05-01T12:51:12.013Z,48.87
2019-05-01T12:52:19.041Z,49.43
2019-05-01T12:53:25.279Z,50.29
2019-05-01T12:54:33.857Z,50.70
2019-05-01T12:55:56.733Z,50.23
2019-05-01T12:57:02.376Z,50.13
2019-05-01T12:58:07.135Z,50.58
2019-05-01T12:59:11.603Z,50.12
2019-05-01T13:00:18.779Z,50.53
2019-05-01T13:01:23.260Z,48.13
2019-05-01T13:02:27.715Z,49.05
2019-05-01T13:03:32.188Z,49.21
2019-05-01T13:04:37.347Z,49.05
2019-05-01T13:05:42.470Z,49.63
2019-05-01T13:06:49.769Z,48.80
2019-05-01T13:07:54.438Z,48.75
2019-05-01T13:08:58.907Z,49.17
2019-05-01T13:10:03.903Z,49.36
2019-05-01T13:11:08.395Z,48.81
2019-05-01T13:12:12.858Z,49.07
2019-05-01T13:13:17.654Z,49.28
2019-05-01T13:14:22.462Z,48.42
2019-05-01T13:15:26.952Z,46.84
2019-05-01T13:16:31.425Z,46.68
2019-05-01T13:17:35.896Z,45.48
2019-05-01T13:18:40.729Z,44.38
2019-05-01T13:19:45.211Z,46.61
2019-05-01T13:20:49.869Z,46.74
2019-05-01T13:21:54.335Z,48.50
2019-05-01T13:22:59.179Z,46.03
2019-05-01T13:24:03.662Z,44.61
2019-05-01T13:25:08.311Z,43.35
2019-05-01T13:26:14.512Z,43.92
2019-05-01T13:27:24.301Z,44.55
2019-05-01T13:28:45.356Z,46.23
2019-05-01T13:29:51.459Z,44.04
2019-05-01T13:31:00.400Z,44.54
2019-05-01T13:32:12.763Z,44.77
2019-05-01T13:33:17.254Z,46.25
2019-05-01T13:34:21.866Z,44.33
2019-05-01T13:35:26.340Z,46.34
2019-05-01T13:36:31.156Z,44.71
2019-05-01T13:37:35.695Z,43.17
2019-05-01T13:38:40.556Z,44.51
2019-05-01T13:39:45.027Z,44.19
2019-05-01T13:40:49.997Z,44.69
2019-05-01T13:41:54.483Z,45.57
2019-05-01T13:42:58.954Z,47.86
2019-05-01T13:44:03.496Z,46.52
2019-05-01T13:45:08.604Z,44.29
2019-05-01T13:46:13.160Z,46.10
2019-05-01T13:47:17.643Z,46.40
2019-05-01T13:48:22.109Z,45.46
2019-05-01T13:49:26.651Z,44.76
2019-05-01T13:50:31.123Z,45.90
2019-05-01T13:51:35.687Z,44.23
2019-05-01T13:52:40.520Z,43.14
2019-05-01T13:53:45.003Z,41.84
2019-05-01T13:54:49.769Z,42.31
2019-05-01T13:55:54.239Z,41.53
2019-05-01T13:56:59.106Z,42.94
2019-05-01T13:58:03.645Z,43.99
2019-05-01T13:59:10.730Z,44.57
2019-05-01T14:00:18.012Z,43.17
2019-05-01T14:01:22.554Z,43.35
2019-05-01T14:02:27.044Z,41.72
2019-05-01T14:03:31.516Z,42.92
2019-05-01T14:04:36.061Z,41.50
2019-05-01T14:05:40.840Z,43.16
2019-05-01T14:06:45.661Z,45.21
2019-05-01T14:07:50.136Z,43.63
2019-05-01T14:08:54.610Z,42.78
2019-05-01T14:09:59.088Z,42.69
2019-05-01T14:11:03.632Z,42.43
2019-05-01T14:12:08.125Z,41.75
2019-05-01T14:13:12.598Z,42.55
2019-05-01T14:14:17.334Z,43.36
2019-05-01T14:15:21.810Z,41.48
2019-05-01T14:16:26.285Z,41.75
2019-05-01T14:17:30.778Z,43.11
2019-05-01T14:18:35.601Z,43.11
2019-05-01T14:19:41.720Z,42.75
2019-05-01T14:20:50.650Z,42.25